createdAt,value
2023-02-22T00:02:24.018Z,65.48
2023-02-22T00:04:52.388Z,66.00
2023-02-22T00:07:21.627Z,66.36
2023-02-22T00:09:49.760Z,65.70
2023-02-22T00:12:18.106Z,67.42
2023-02-22T00:14:46.038Z,65.26
2023-02-22T00:17:14.004Z,65.16
2023-02-22T00:19:42.296Z,64.45
2023-02-22T00:22:10.214Z,67.18
2023-02-22T00:24:38.201Z,66.48
2023-02-22T00:27:06.642Z,63.98
2023-02-22T00:29:34.848Z,65.32
2023-02-22T00:32:03.015Z,64.82
2023-02-22T00:34:31.429Z,68.53
2023-02-22T00:37:03.065Z,67.48
2023-02-22T00:39:31.401Z,70.32
2023-02-22T00:42:00.380Z,70.99
2023-02-22T00:44:30.270Z,73.29
2023-02-22T00:46:58.612Z,69.99
2023-02-22T00:49:26.592Z,71.29
2023-02-22T00:51:55.067Z,68.36
2023-02-22T00:54:23.425Z,67.15
2023-02-22T00:56:51.584Z,66.37
2023-02-22T00:59:19.692Z,69.75
2023-02-22T01:01:48.178Z,70.86
2023-02-22T01:04:16.128Z,73.68
2023-02-22T01:06:44.243Z,73.48
2023-02-22T01:09:12.632Z,72.38
2023-02-22T01:11:42.175Z,71.87
2023-02-22T01:14:10.041Z,74.36
2023-02-22T01:16:38.375Z,71.60
2023-02-22T01:19:06.622Z,72.67
2023-02-22T01:21:34.938Z,71.33
2023-02-22T01:24:03.312Z,68.65
2023-02-22T01:26:31.220Z,68.90
2023-02-22T01:28:59.242Z,72.30
2023-02-22T01:31:27.807Z,71.15
2023-02-22T01:33:55.676Z,72.23
2023-02-22T01:36:23.547Z,71.60
2023-02-22T01:38:51.799Z,69.58
2023-02-22T01:41:21.448Z,69.26
2023-02-22T01:43:49.354Z,68.93
2023-02-22T01:46:22.243Z,78.79
2023-02-22T01:48:54.802Z,78.56
2023-02-22T01:51:31.525Z,77.07
2023-02-22T01:54:03.724Z,74.45
2023-02-22T01:56:35.248Z,70.85
2023-02-22T01:59:09.175Z,70.45
2023-02-22T02:01:39.281Z,70.44
2023-02-22T02:04:11.532Z,71.92
2023-02-22T02:06:42.499Z,72.96
2023-02-22T02:09:31.779Z,78.30
2023-02-22T02:12:05.386Z,76.44
2023-02-22T02:14:34.110Z,73.53
2023-02-22T02:17:02.205Z,72.88
2023-02-22T02:19:40.751Z,72.17
2023-02-22T02:22:35.247Z,71.79
2023-02-22T02:25:17.701Z,73.91
2023-02-22T02:28:13.903Z,74.76
2023-02-22T02:30:48.839Z,76.06
2023-02-22T02:33:26.923Z,75.14
2023-02-22T02:36:20.463Z,79.99
2023-02-22T02:38:54.723Z,77.24
2023-02-22T02:41:28.289Z,77.89
2023-02-22T02:44:07.342Z,75.84
2023-02-22T02:46:53.658Z,77.10
2023-02-22T02:49:36.739Z,75.20
2023-02-22T02:52:05.896Z,77.18
2023-02-22T02:54:34.583Z,76.12
2023-02-22T02:57:03.107Z,77.21
2023-02-22T02:59:39.885Z,80.17
2023-02-22T03:02:27.009Z,78.05
2023-02-22T03:05:07.704Z,80.98
2023-02-22T03:07:48.239Z,80.67
2023-02-22T03:10:28.240Z,77.90
2023-02-22T03:14:01.110Z,79.24
2023-02-22T03:16:50.532Z,80.49
2023-02-22T03:19:46.067Z,81.38
2023-02-22T03:22:44.306Z,80.49
2023-02-22T03:25:20.677Z,79.45
2023-02-22T03:27:54.410Z,79.26
2023-02-22T03:30:28.312Z,78.04
2023-02-22T03:33:00.776Z,75.72
2023-02-22T03:35:33.807Z,75.99
2023-02-22T03:38:04.576Z,74.42
2023-02-22T03:40:40.090Z,72.37
2023-02-22T03:43:10.903Z,72.50
2023-02-22T03:45:43.658Z,72.18
2023-02-22T03:48:14.601Z,70.88
2023-02-22T03:50:43.126Z,70.73
2023-02-22T03:53:11.669Z,69.91
2023-02-22T03:55:40.146Z,69.00
2023-02-22T03:58:12.351Z,70.37
2023-02-22T04:00:44.753Z,69.25
2023-02-22T04:03:13.371Z,68.52
2023-02-22T04:05:41.631Z,68.20
2023-02-22T04:08:10.105Z,69.64
2023-02-22T04:10:38.481Z,68.56
2023-02-22T04:13:09.108Z,69.37
2023-02-22T04:15:37.609Z,69.49
2023-02-22T04:18:06.341Z,69.73
2023-02-22T04:20:35.164Z,68.54
2023-02-22T04:23:03.926Z,68.00
2023-02-22T04:25:32.357Z,68.54
2023-02-22T04:28:04.408Z,68.88
2023-02-22T04:30:33.571Z,68.55
2023-02-22T04:33:01.961Z,70.26
2023-02-22T04:35:29.887Z,70.77
2023-02-22T04:37:58.540Z,71.09
2023-02-22T04:40:26.482Z,70.81
2023-02-22T04:42:54.411Z,70.73
2023-02-22T04:45:23.074Z,71.25
2023-02-22T04:47:51.142Z,70.35
2023-02-22T04:50:19.381Z,70.75
2023-02-22T04:52:47.752Z,70.00
2023-02-22T04:55:16.954Z,69.69
2023-02-22T04:57:45.111Z,73.28
2023-02-22T05:00:17.610Z,70.99
2023-02-22T05:02:46.194Z,68.02
2023-02-22T05:05:16.345Z,68.08
2023-02-22T05:07:44.497Z,67.76
2023-02-22T05:10:12.415Z,69.58
2023-02-22T05:12:40.964Z,70.95
2023-02-22T05:15:09.504Z,73.26
2023-02-22T05:17:37.619Z,76.23
2023-02-22T05:20:08.763Z,75.33
2023-02-22T05:22:36.713Z,73.92
2023-02-22T05:25:04.886Z,69.67
2023-02-22T05:27:33.224Z,70.04
2023-02-22T05:30:01.096Z,68.48
2023-02-22T05:32:29.006Z,70.43
2023-02-22T05:34:57.438Z,72.59
2023-02-22T05:37:25.368Z,72.67
2023-02-22T05:39:53.398Z,72.88
2023-02-22T05:42:22.322Z,73.73
2023-02-22T05:44:50.276Z,74.43
2023-02-22T05:47:18.515Z,74.19
2023-02-22T05:49:46.840Z,74.10
2023-02-22T05:52:14.756Z,73.71
2023-02-22T05:54:42.659Z,73.76
2023-02-22T05:57:10.982Z,76.31
2023-02-22T05:59:38.950Z,76.53
2023-02-22T06:02:06.877Z,74.92
2023-02-22T06:04:35.297Z,77.92
2023-02-22T06:07:03.472Z,78.45
2023-02-22T06:09:31.867Z,76.84
2023-02-22T06:12:00.190Z,76.42
2023-02-22T06:14:28.104Z,77.56
2023-02-22T06:16:57.341Z,77.18
2023-02-22T06:19:26.506Z,75.94
2023-02-22T06:21:56.759Z,72.78
2023-02-22T06:24:24.677Z,72.12
2023-02-22T06:26:57.796Z,72.48
2023-02-22T06:29:26.479Z,71.40
2023-02-22T06:31:54.990Z,71.14
2023-02-22T06:34:22.993Z,72.23
2023-02-22T06:36:51.008Z,70.84
2023-02-22T06:39:19.413Z,71.41
2023-02-22T06:41:48.753Z,73.70
2023-02-22T06:44:16.809Z,74.08
2023-02-22T06:46:51.492Z,73.22
2023-02-22T06:49:21.890Z,73.99
2023-02-22T06:51:50.250Z,73.30
2023-02-22T06:54:18.215Z,71.89
2023-02-22T06:56:48.937Z,71.48
2023-02-22T06:59:17.313Z,70.48
2023-02-22T07:01:45.395Z,71.36
2023-02-22T07:04:13.500Z,71.64
2023-02-22T07:06:50.967Z,70.86
2023-02-22T07:09:19.302Z,70.83
2023-02-22T07:11:47.801Z,70.28
2023-02-22T07:14:18.886Z,69.91
2023-02-22T07:16:47.286Z,70.26
2023-02-22T07:19:15.294Z,70.60
2023-02-22T07:21:43.232Z,69.69
2023-02-22T07:24:11.583Z,70.14
2023-02-22T07:26:42.947Z,71.15
2023-02-22T07:29:11.607Z,69.73
2023-02-22T07:31:39.792Z,69.05
2023-02-22T07:34:07.803Z,68.92
2023-02-22T07:36:37.069Z,70.18
2023-02-22T07:39:08.947Z,70.04
2023-02-22T07:41:37.364Z,69.07
2023-02-22T07:44:15.297Z,66.05
2023-02-22T07:46:48.584Z,63.01
2023-02-22T07:49:17.275Z,61.44
2023-02-22T07:51:45.753Z,59.95
2023-02-22T07:54:13.689Z,60.89
2023-02-22T07:56:46.511Z,58.32
2023-02-22T07:59:15.771Z,57.71
2023-02-22T08:01:43.793Z,59.85
2023-02-22T08:04:12.162Z,60.21
2023-02-22T08:06:40.159Z,56.76
2023-02-22T08:09:10.091Z,56.73
2023-02-22T08:11:38.578Z,57.71
2023-02-22T08:14:06.568Z,54.90
2023-02-22T08:16:34.647Z,53.36
2023-02-22T08:19:03.032Z,54.64
2023-02-22T08:21:31.258Z,55.32
2023-02-22T08:23:59.208Z,57.88
2023-02-22T08:26:27.957Z,56.21
2023-02-22T08:28:57.348Z,57.19
2023-02-22T08:31:25.606Z,59.50
2023-02-22T08:33:54.241Z,55.05
2023-02-22T08:36:22.152Z,56.69
2023-02-22T08:38:50.376Z,57.91
2023-02-22T08:41:19.074Z,55.72
2023-02-22T08:43:47.219Z,56.45
2023-02-22T08:46:17.492Z,55.12
2023-02-22T08:48:52.826Z,55.34
2023-02-22T08:51:21.361Z,55.51
2023-02-22T08:53:49.713Z,55.09
2023-02-22T08:56:19.013Z,55.85
2023-02-22T08:58:46.987Z,54.86
2023-02-22T09:01:24.800Z,52.41
2023-02-22T09:04:01.228Z,52.13
2023-02-22T09:06:29.930Z,53.26
2023-02-22T09:08:57.997Z,51.14
2023-02-22T09:11:25.944Z,54.38
2023-02-22T09:13:54.310Z,53.61
2023-02-22T09:16:22.252Z,56.38
2023-02-22T09:18:50.305Z,57.15
2023-02-22T09:21:18.866Z,56.04
2023-02-22T09:23:48.089Z,55.67
2023-02-22T09:26:16.406Z,56.05
2023-02-22T09:28:44.747Z,53.63
2023-02-22T09:31:12.964Z,54.70
2023-02-22T09:33:47.377Z,56.45
2023-02-22T09:36:16.157Z,55.94
2023-02-22T09:38:44.712Z,56.40
2023-02-22T09:41:35.248Z,55.69
2023-02-22T09:44:31.453Z,55.34
2023-02-22T09:47:00.089Z,55.58
2023-02-22T09:49:32.986Z,56.80
2023-02-22T09:52:11.594Z,57.16
2023-02-22T09:54:52.183Z,56.49
2023-02-22T09:57:30.223Z,56.84
2023-02-22T10:00:13.836Z,57.68
2023-02-22T10:05:41.048Z,56.53
2023-02-22T10:08:14.029Z,58.03
2023-02-22T10:10:46.270Z,57.51
2023-02-22T10:13:35.573Z,56.67
2023-02-22T10:16:17.143Z,56.95
2023-02-22T10:19:08.504Z,57.52
2023-02-22T10:22:05.193Z,58.40
2023-02-22T10:24:53.096Z,58.60
2023-02-22T10:27:36.057Z,59.71
2023-02-22T10:30:22.366Z,59.61
2023-02-22T10:33:19.307Z,57.91
2023-02-22T10:35:48.025Z,57.83
2023-02-22T10:38:20.456Z,57.41
2023-02-22T10:40:57.190Z,59.10
2023-02-22T10:43:25.981Z,57.08
2023-02-22T10:45:56.912Z,58.10
2023-02-22T10:48:28.953Z,56.50
2023-02-22T10:51:05.140Z,56.94
2023-02-22T10:53:38.518Z,57.16
2023-02-22T10:56:19.575Z,58.21
2023-02-22T10:58:50.047Z,58.63
2023-02-22T11:01:37.183Z,57.01
2023-02-22T11:04:12.358Z,57.27
2023-02-22T11:06:46.706Z,59.08
2023-02-22T11:09:25.121Z,57.97
2023-02-22T11:12:11.594Z,58.01
2023-02-22T11:14:41.143Z,56.66
2023-02-22T11:17:10.865Z,56.44
2023-02-22T11:19:47.818Z,56.56
2023-02-22T11:22:26.083Z,55.99
2023-02-22T11:24:57.813Z,56.86
2023-02-22T11:27:40.192Z,56.79
2023-02-22T11:30:31.703Z,57.51
2023-02-22T11:33:11.315Z,55.90
2023-02-22T11:36:36.447Z,55.25
2023-02-22T11:39:29.320Z,53.98
2023-02-22T11:41:57.441Z,54.17
2023-02-22T11:44:33.587Z,55.54
2023-02-22T11:47:09.279Z,54.18
2023-02-22T11:49:43.953Z,54.41
2023-02-22T11:52:28.717Z,55.08
2023-02-22T11:55:41.208Z,54.28
2023-02-22T11:58:27.624Z,53.96
2023-02-22T12:01:03.177Z,53.28
2023-02-22T12:04:17.169Z,50.90
2023-02-22T12:07:04.380Z,49.93
2023-02-22T12:09:40.997Z,52.46
2023-02-22T12:12:36.433Z,52.96
2023-02-22T12:15:22.201Z,52.45
2023-02-22T12:18:09.261Z,50.11
2023-02-22T12:21:01.931Z,50.35
2023-02-22T12:24:15.042Z,49.75
2023-02-22T12:26:51.163Z,47.78
2023-02-22T12:29:37.834Z,49.34
2023-02-22T12:32:20.418Z,48.48
2023-02-22T12:34:59.906Z,48.22
2023-02-22T12:38:03.210Z,49.59
2023-02-22T12:40:57.316Z,51.85
2023-02-22T12:43:49.288Z,51.46
2023-02-22T12:46:22.101Z,51.37
2023-02-22T12:49:14.106Z,51.11
2023-02-22T12:51:46.314Z,50.21
2023-02-22T12:54:37.873Z,51.14
2023-02-22T12:57:12.366Z,51.04
2023-02-22T12:59:49.717Z,51.11
2023-02-22T13:02:34.775Z,51.25
2023-02-22T13:05:03.610Z,53.06
2023-02-22T13:07:52.213Z,52.34
2023-02-22T13:10:39.655Z,50.23
2023-02-22T13:13:33.960Z,51.24
2023-02-22T13:16:17.268Z,52.24
2023-02-22T13:19:30.862Z,51.85
2023-02-22T13:22:07.872Z,52.54
2023-02-22T13:24:40.782Z,53.01
2023-02-22T13:27:15.030Z,53.62
2023-02-22T13:29:46.823Z,52.96
2023-02-22T13:32:35.417Z,54.70
2023-02-22T13:35:12.718Z,53.58
2023-02-22T13:37:59.217Z,52.91
2023-02-22T13:40:36.237Z,51.61
2023-02-22T13:43:32.380Z,52.67
2023-02-22T13:46:19.404Z,54.46
2023-02-22T13:49:05.270Z,56.33
2023-02-22T13:51:52.767Z,55.16
2023-02-22T13:54:25.825Z,55.01
2023-02-22T13:56:54.909Z,55.35
2023-02-22T13:59:36.169Z,58.04
2023-02-22T14:02:06.061Z,55.90
2023-02-22T14:04:42.298Z,55.90
2023-02-22T14:07:22.476Z,55.03
2023-02-22T14:10:00.231Z,54.97
2023-02-22T14:12:31.111Z,56.28
2023-02-22T14:15:28.617Z,55.45
2023-02-22T14:17:57.405Z,55.96
2023-02-22T14:20:31.402Z,56.10
2023-02-22T14:23:25.081Z,56.34
2023-02-22T14:25:55.475Z,53.74
2023-02-22T14:29:02.377Z,52.60
2023-02-22T14:31:52.840Z,53.32
2023-02-22T14:34:31.548Z,53.62
2023-02-22T14:37:17.750Z,55.59
2023-02-22T14:39:52.815Z,53.62
2023-02-22T14:42:31.844Z,52.03
2023-02-22T14:45:28.430Z,52.60
2023-02-22T14:48:14.083Z,54.74
2023-02-22T14:50:48.980Z,55.09
2023-02-22T14:53:46.314Z,53.88
2023-02-22T14:56:24.164Z,54.53
2023-02-22T14:59:00.091Z,54.13
2023-02-22T15:01:47.330Z,54.47
2023-02-22T15:04:22.306Z,54.08
2023-02-22T15:06:51.210Z,53.69
2023-02-22T15:09:28.433Z,53.10
2023-02-22T15:12:03.376Z,53.10
2023-02-22T15:14:39.178Z,53.72
2023-02-22T15:17:20.614Z,53.08
2023-02-22T15:19:51.422Z,56.09
2023-02-22T15:22:27.349Z,55.89
2023-02-22T15:25:01.401Z,54.47
2023-02-22T15:27:29.714Z,53.95
2023-02-22T15:30:05.049Z,53.96
2023-02-22T15:32:41.481Z,54.76
2023-02-22T15:35:32.999Z,56.00
2023-02-22T15:38:18.519Z,56.79
2023-02-22T15:40:50.878Z,56.19
2023-02-22T15:43:24.780Z,57.78
2023-02-22T15:45:55.265Z,57.86
2023-02-22T15:48:23.693Z,57.21
2023-02-22T15:51:13.994Z,57.18
2023-02-22T15:53:47.337Z,57.19
2023-02-22T15:56:24.611Z,56.07
2023-02-22T15:59:00.104Z,55.82
2023-02-22T16:01:28.066Z,57.10
2023-02-22T16:04:01.694Z,57.61
2023-02-22T16:06:36.300Z,58.35
2023-02-22T16:09:13.324Z,58.02
2023-02-22T16:11:50.481Z,54.72
2023-02-22T16:14:37.944Z,55.12
2023-02-22T16:17:29.796Z,54.27
2023-02-22T16:20:14.204Z,52.64
2023-02-22T16:22:49.573Z,51.19
2023-02-22T16:25:25.342Z,51.61
2023-02-22T16:28:03.429Z,52.82
2023-02-22T16:30:35.078Z,52.28
2023-02-22T16:33:16.729Z,57.08
2023-02-22T16:35:52.163Z,53.55
2023-02-22T16:38:22.098Z,52.97
2023-02-22T16:40:55.700Z,52.93
2023-02-22T16:43:30.095Z,53.52
2023-02-22T16:45:58.729Z,57.69
2023-02-22T16:48:30.207Z,55.62
2023-02-22T16:51:08.151Z,54.88
2023-02-22T16:53:37.174Z,54.98
2023-02-22T16:56:09.420Z,55.00
2023-02-22T16:58:41.659Z,54.79
2023-02-22T17:01:13.007Z,55.03
2023-02-22T17:03:41.188Z,55.56
2023-02-22T17:06:12.395Z,55.73
2023-02-22T17:08:41.437Z,55.59
2023-02-22T17:11:11.707Z,56.32
2023-02-22T17:13:41.098Z,56.40
2023-02-22T17:16:14.355Z,55.49
2023-02-22T17:18:42.295Z,56.07
2023-02-22T17:21:14.535Z,59.90
2023-02-22T17:23:46.305Z,63.15
2023-02-22T17:26:16.300Z,61.20
2023-02-22T17:28:44.626Z,60.78
2023-02-22T17:31:23.486Z,61.07
2023-02-22T17:33:51.798Z,59.85
2023-02-22T17:36:21.042Z,62.80
2023-02-22T17:38:50.145Z,58.38
2023-02-22T17:41:18.564Z,58.28
2023-02-22T17:43:46.619Z,57.52
2023-02-22T17:46:14.599Z,58.07
2023-02-22T17:48:43.278Z,62.56
2023-02-22T17:51:12.413Z,61.46
2023-02-22T17:53:40.885Z,60.14
2023-02-22T17:56:12.536Z,59.21
2023-02-22T17:58:41.777Z,61.61
2023-02-22T18:01:21.077Z,67.42
2023-02-22T18:03:49.739Z,66.25
2023-02-22T18:06:22.568Z,66.31
2023-02-22T18:08:56.497Z,62.85
2023-02-22T18:11:26.614Z,62.77
2023-02-22T18:13:59.023Z,59.95
2023-02-22T18:16:27.957Z,60.22
2023-02-22T18:18:56.641Z,61.99
2023-02-22T18:21:27.022Z,64.55
2023-02-22T18:23:55.510Z,65.59
2023-02-22T18:26:25.972Z,66.22
2023-02-22T18:28:54.261Z,64.63
2023-02-22T18:31:23.439Z,62.94
2023-02-22T18:33:52.652Z,64.06
2023-02-22T18:36:23.971Z,63.59
2023-02-22T18:38:54.043Z,65.99
2023-02-22T18:41:26.582Z,65.19
2023-02-22T18:44:00.607Z,64.09
2023-02-22T18:46:30.348Z,62.83
2023-02-22T18:48:59.953Z,62.11
2023-02-22T18:51:29.170Z,63.48
2023-02-22T18:54:03.669Z,66.67
2023-02-22T18:56:36.135Z,65.80
2023-02-22T18:59:12.359Z,64.17
2023-02-22T19:01:41.576Z,63.30
2023-02-22T19:04:10.366Z,63.52
2023-02-22T19:06:39.280Z,62.69
2023-02-22T19:09:08.851Z,63.39
2023-02-22T19:11:37.596Z,65.31
2023-02-22T19:14:06.419Z,66.44
2023-02-22T19:16:35.364Z,65.19
2023-02-22T19:19:04.006Z,65.27
2023-02-22T19:21:32.691Z,65.07
2023-02-22T19:24:03.597Z,66.15
2023-02-22T19:26:32.347Z,65.12
2023-02-22T19:29:05.114Z,64.82
2023-02-22T19:31:34.390Z,64.67
2023-02-22T19:34:03.406Z,64.67
2023-02-22T19:36:31.899Z,64.85
2023-02-22T19:39:03.141Z,64.30
2023-02-22T19:41:31.519Z,68.69
2023-02-22T19:44:00.390Z,69.14
2023-02-22T19:46:29.462Z,66.77
2023-02-22T19:48:58.210Z,65.32
2023-02-22T19:51:28.470Z,62.84
2023-02-22T19:54:02.792Z,63.21
2023-02-22T19:56:31.705Z,62.85
2023-02-22T19:59:02.679Z,61.41
2023-02-22T20:01:33.464Z,60.46
2023-02-22T20:04:04.783Z,60.75
2023-02-22T20:06:36.306Z,59.77
2023-02-22T20:09:04.708Z,60.25
2023-02-22T20:11:32.839Z,59.67
2023-02-22T20:14:05.806Z,59.48
2023-02-22T20:16:35.110Z,58.94
2023-02-22T20:19:03.716Z,59.90
2023-02-22T20:21:34.065Z,59.11
2023-02-22T20:24:15.178Z,59.47
2023-02-22T20:26:43.540Z,58.95
2023-02-22T20:29:12.327Z,59.22
2023-02-22T20:31:41.998Z,58.69
2023-02-22T20:34:11.012Z,58.25
2023-02-22T20:36:41.666Z,57.77
2023-02-22T20:39:14.348Z,58.02
2023-02-22T20:41:45.225Z,57.19
2023-02-22T20:44:15.532Z,57.47
2023-02-22T20:46:45.289Z,57.75
2023-02-22T20:49:17.262Z,57.40
2023-02-22T20:51:46.683Z,57.34
2023-02-22T20:54:14.660Z,58.06
2023-02-22T20:56:45.385Z,57.40
2023-02-22T20:59:17.220Z,57.06
2023-02-22T21:01:45.395Z,57.35
2023-02-22T21:04:13.911Z,56.37
2023-02-22T21:06:42.157Z,56.81
2023-02-22T21:09:15.580Z,57.29
2023-02-22T21:11:44.236Z,56.71
2023-02-22T21:14:16.901Z,54.73
2023-02-22T21:16:46.874Z,55.45
2023-02-22T21:19:16.774Z,56.27
2023-02-22T21:21:45.002Z,57.33
2023-02-22T21:24:13.667Z,57.90
2023-02-22T21:26:41.654Z,57.09
2023-02-22T21:29:10.331Z,56.98
2023-02-22T21:31:38.924Z,55.47
2023-02-22T21:34:06.972Z,56.46
2023-02-22T21:36:34.825Z,55.35
2023-02-22T21:39:09.671Z,56.75
2023-02-22T21:41:40.509Z,55.18
2023-02-22T21:44:09.170Z,55.71
2023-02-22T21:46:37.138Z,55.01
2023-02-22T21:49:06.028Z,55.56
2023-02-22T21:51:35.376Z,54.24
2023-02-22T21:54:08.389Z,55.13
2023-02-22T21:56:40.034Z,56.54
2023-02-22T21:59:14.610Z,57.00
2023-02-22T22:01:50.550Z,55.86
2023-02-22T22:04:24.946Z,55.84
2023-02-22T22:06:54.272Z,56.05
2023-02-22T22:09:23.853Z,55.43
2023-02-22T22:12:01.520Z,54.83
2023-02-22T22:14:29.804Z,55.42
2023-02-22T22:16:59.435Z,55.18
2023-02-22T22:19:29.437Z,56.15
2023-02-22T22:21:58.335Z,56.52
2023-02-22T22:24:28.948Z,55.55
2023-02-22T22:26:57.273Z,55.87
2023-02-22T22:29:29.199Z,56.81
2023-02-22T22:31:57.667Z,56.84
2023-02-22T22:34:29.668Z,56.32
2023-02-22T22:36:58.328Z,57.01
2023-02-22T22:39:27.070Z,56.50
2023-02-22T22:41:55.285Z,57.17
2023-02-22T22:44:23.567Z,56.85
2023-02-22T22:46:54.977Z,56.61
2023-02-22T22:49:25.641Z,55.91
2023-02-22T22:51:54.724Z,57.06
2023-02-22T22:54:22.539Z,56.98
2023-02-22T22:56:50.786Z,56.87
2023-02-22T22:59:18.761Z,56.64
2023-02-22T23:01:46.725Z,56.40
2023-02-22T23:04:16.595Z,55.83
2023-02-22T23:06:47.056Z,57.09
2023-02-22T23:09:30.673Z,55.72
2023-02-22T23:12:10.309Z,55.61
2023-02-22T23:14:45.740Z,56.31
2023-02-22T23:17:16.348Z,55.53
2023-02-22T23:19:45.374Z,56.08
2023-02-22T23:22:14.608Z,55.97
2023-02-22T23:24:44.671Z,55.60
2023-02-22T23:27:13.020Z,55.99
2023-02-22T23:29:42.409Z,56.35
2023-02-22T23:32:10.561Z,56.16
2023-02-22T23:34:41.693Z,56.17
2023-02-22T23:37:10.932Z,55.83
2023-02-22T23:39:39.387Z,56.49
2023-02-22T23:42:10.270Z,55.62
2023-02-22T23:44:39.968Z,56.75
2023-02-22T23:47:09.840Z,56.23
2023-02-22T23:49:38.705Z,57.36
2023-02-22T23:52:07.979Z,57.03
2023-02-22T23:54:40.557Z,56.07
2023-02-22T23:57:09.055Z,55.29
2023-02-22T23:59:40.630Z,55.65
